createdAt,value
2022-12-13T00:04:44.361Z,15.25
2022-12-13T00:09:54.034Z,14.35
2022-12-13T00:15:03.813Z,12.15
2022-12-13T00:25:14.770Z,12.50
2022-12-13T00:30:21.137Z,12.23
2022-12-13T00:35:22.781Z,11.25
2022-12-13T00:40:29.604Z,12.95
2022-12-13T00:45:39.281Z,11.63
2022-12-13T00:50:43.325Z,11.90
2022-12-13T00:55:57.271Z,11.40
2022-12-13T01:01:11.675Z,12.40
2022-12-13T01:06:17.585Z,10.95
2022-12-13T01:11:23.870Z,13.88
2022-12-13T01:16:30.025Z,12.23
2022-12-13T01:21:38.148Z,13.02
2022-12-13T01:26:42.095Z,12.57
2022-12-13T01:31:47.131Z,12.70
2022-12-13T01:36:52.833Z,12.52
2022-12-13T01:42:05.934Z,11.98
2022-12-13T01:47:10.274Z,12.30
2022-12-13T01:52:15.171Z,12.48
2022-12-13T01:57:26.200Z,14.07
2022-12-13T02:02:35.925Z,13.70
2022-12-13T02:07:44.603Z,14.13
2022-12-13T02:12:48.392Z,14.00
2022-12-13T02:18:24.271Z,14.75
2022-12-13T02:24:17.786Z,14.88
2022-12-13T02:29:58.598Z,14.53
2022-12-13T02:35:20.929Z,15.02
2022-12-13T02:40:38.583Z,16.58
2022-12-13T02:45:46.733Z,16.15
2022-12-13T02:50:49.518Z,16.48
2022-12-13T02:55:58.326Z,15.18
2022-12-13T03:01:28.091Z,16.40
2022-12-13T03:06:51.969Z,16.33
2022-12-13T03:12:33.768Z,17.55
2022-12-13T03:17:52.013Z,15.63
2022-12-13T03:22:58.873Z,15.95
2022-12-13T03:28:02.404Z,17.08
2022-12-13T03:33:04.956Z,16.45
2022-12-13T03:38:08.770Z,16.88
2022-12-13T03:43:23.897Z,16.67
2022-12-13T03:48:32.287Z,15.50
2022-12-13T03:53:43.624Z,15.40
2022-12-13T03:58:51.566Z,16.50
2022-12-13T04:04:03.413Z,17.13
2022-12-13T04:09:10.394Z,16.15
2022-12-13T04:14:22.751Z,17.83
2022-12-13T04:19:30.778Z,18.00
2022-12-13T04:24:37.530Z,18.17
2022-12-13T04:29:39.056Z,18.00
2022-12-13T04:34:40.617Z,19.17
2022-12-13T04:39:50.600Z,18.17
2022-12-13T04:44:52.116Z,19.75
2022-12-13T04:49:58.072Z,19.60
2022-12-13T04:55:04.787Z,24.23
2022-12-13T05:00:11.021Z,18.30
2022-12-13T05:05:15.244Z,18.92
2022-12-13T05:10:37.832Z,20.35
2022-12-13T05:15:44.546Z,19.83
2022-12-13T05:20:50.862Z,20.70
2022-12-13T05:26:05.680Z,20.70
2022-12-13T05:31:22.943Z,23.15
2022-12-13T05:36:32.802Z,20.33
2022-12-13T05:41:39.103Z,21.38
2022-12-13T05:46:41.652Z,20.23
2022-12-13T05:51:49.182Z,20.63
2022-12-13T05:56:52.744Z,20.73
2022-12-13T06:01:57.757Z,19.65
2022-12-13T06:12:31.837Z,19.55
2022-12-13T06:17:39.247Z,19.00
2022-12-13T06:22:50.243Z,20.33
2022-12-13T06:27:55.993Z,18.90
2022-12-13T06:33:10.867Z,17.92
2022-12-13T06:38:21.844Z,18.13
2022-12-13T06:43:46.944Z,17.67
2022-12-13T06:48:48.963Z,20.17
2022-12-13T06:53:50.470Z,18.60
2022-12-13T06:59:02.374Z,19.25
2022-12-13T07:04:04.090Z,19.50
2022-12-13T07:09:08.289Z,18.65
2022-12-13T07:14:11.846Z,18.17
2022-12-13T07:19:23.782Z,17.80
2022-12-13T07:24:29.755Z,16.52
2022-12-13T07:29:33.231Z,18.67
2022-12-13T07:34:39.683Z,18.00
2022-12-13T07:39:43.746Z,18.08
2022-12-13T07:44:47.610Z,18.35
2022-12-13T07:49:52.867Z,17.20
2022-12-13T07:55:08.073Z,17.00
2022-12-13T08:00:17.245Z,16.63
2022-12-13T08:05:27.815Z,17.52
2022-12-13T08:10:29.774Z,16.50
2022-12-13T08:15:31.694Z,15.65
2022-12-13T08:20:41.200Z,15.30
2022-12-13T08:25:51.770Z,15.02
2022-12-13T08:30:55.167Z,16.02
2022-12-13T08:36:09.392Z,14.68
2022-12-13T08:41:19.085Z,13.32
2022-12-13T08:46:20.683Z,12.50
2022-12-13T08:51:28.380Z,13.60
2022-12-13T08:56:39.582Z,13.45
2022-12-13T09:02:00.203Z,13.23
2022-12-13T09:07:09.684Z,13.35
2022-12-13T09:12:29.472Z,12.07
2022-12-13T09:17:37.668Z,11.90
2022-12-13T09:27:51.788Z,10.63
2022-12-13T09:33:28.252Z,11.68
2022-12-13T09:38:31.849Z,10.95
2022-12-13T09:43:43.838Z,11.23
2022-12-13T09:48:53.149Z,10.98
2022-12-13T09:54:06.705Z,11.35
2022-12-13T09:59:15.409Z,9.30
2022-12-13T10:04:20.289Z,10.55
2022-12-13T10:09:27.934Z,12.05
2022-12-13T10:14:42.674Z,12.00
2022-12-13T10:19:54.318Z,11.02
2022-12-13T10:25:06.337Z,11.23
2022-12-13T10:30:27.758Z,11.40
2022-12-13T10:35:39.902Z,10.85
2022-12-13T10:40:48.951Z,11.48
2022-12-13T10:46:04.270Z,10.77
2022-12-13T10:51:12.616Z,10.45
2022-12-13T11:01:34.902Z,9.93
2022-12-13T11:06:44.670Z,10.38
2022-12-13T11:12:00.655Z,9.65
2022-12-13T11:17:10.175Z,10.55
2022-12-13T11:22:36.051Z,9.95
2022-12-13T11:28:26.426Z,8.73
2022-12-13T11:34:10.004Z,8.18
2022-12-13T11:39:26.811Z,9.60
2022-12-13T11:44:48.116Z,8.38
2022-12-13T11:50:03.109Z,9.30
2022-12-13T11:55:18.939Z,9.02
2022-12-13T12:00:47.466Z,8.70
2022-12-13T12:05:56.496Z,8.63
2022-12-13T12:11:17.843Z,8.70
2022-12-13T12:16:43.004Z,9.27
2022-12-13T12:22:14.679Z,8.93
2022-12-13T12:27:47.441Z,8.65
2022-12-13T12:33:19.398Z,8.75
2022-12-13T12:39:03.155Z,8.10
2022-12-13T12:44:33.906Z,8.45
2022-12-13T12:50:03.599Z,8.70
2022-12-13T12:55:28.335Z,9.00
2022-12-13T13:00:48.822Z,9.35
2022-12-13T13:06:21.562Z,8.95
2022-12-13T13:16:55.732Z,8.10
2022-12-13T13:22:30.517Z,7.82
2022-12-13T13:27:50.766Z,7.23
2022-12-13T13:33:00.046Z,8.02
2022-12-13T13:38:07.303Z,8.53
2022-12-13T13:43:14.170Z,7.70
2022-12-13T13:48:54.150Z,8.15
2022-12-13T13:54:46.402Z,7.57
2022-12-13T14:00:05.926Z,7.95
2022-12-13T14:05:29.033Z,7.55
2022-12-13T14:10:48.707Z,7.88
2022-12-13T14:16:28.874Z,7.43
2022-12-13T14:22:01.414Z,8.23
2022-12-13T14:27:18.294Z,8.63
2022-12-13T14:32:29.291Z,9.52
2022-12-13T14:37:37.082Z,8.27
2022-12-13T14:47:44.605Z,10.07
2022-12-13T14:52:52.903Z,9.52
2022-12-13T14:58:00.320Z,10.90
2022-12-13T15:03:04.156Z,9.98
2022-12-13T15:08:17.712Z,9.80
2022-12-13T15:13:36.069Z,10.07
2022-12-13T15:18:50.612Z,11.13
2022-12-13T15:23:55.944Z,8.52
2022-12-13T15:29:10.637Z,8.45
2022-12-13T15:34:29.842Z,9.75
2022-12-13T15:39:39.936Z,9.13
2022-12-13T15:44:53.879Z,8.38
2022-12-13T15:50:02.855Z,7.75
2022-12-13T15:55:06.983Z,7.45
2022-12-13T16:00:20.549Z,8.68
2022-12-13T16:05:35.764Z,8.15
2022-12-13T16:10:39.809Z,8.25
2022-12-13T16:16:00.331Z,7.63
2022-12-13T16:21:14.248Z,7.82
2022-12-13T16:26:28.251Z,7.88
2022-12-13T16:31:37.401Z,8.38
2022-12-13T16:36:41.392Z,7.93
2022-12-13T16:41:54.046Z,8.45
2022-12-13T16:47:16.880Z,7.70
2022-12-13T16:52:29.250Z,8.07
2022-12-13T16:57:33.097Z,8.10
2022-12-13T17:02:51.939Z,7.68
2022-12-13T17:07:56.638Z,8.70
2022-12-13T17:13:02.982Z,8.88
2022-12-13T17:18:08.891Z,8.48
2022-12-13T17:23:17.996Z,7.47
2022-12-13T17:28:25.121Z,11.05
2022-12-13T17:33:29.440Z,10.95
2022-12-13T17:38:37.141Z,10.25
2022-12-13T17:43:44.175Z,10.65
2022-12-13T17:48:48.384Z,10.98
2022-12-13T17:53:52.010Z,12.55
2022-12-13T17:58:53.513Z,13.00
2022-12-13T18:03:57.909Z,11.48
2022-12-13T18:09:05.077Z,13.07
2022-12-13T18:14:14.594Z,12.38
2022-12-13T18:19:25.726Z,12.57
2022-12-13T18:24:35.095Z,12.35
2022-12-13T18:29:42.737Z,12.00
2022-12-13T18:35:03.252Z,14.05
2022-12-13T18:40:18.681Z,13.43
2022-12-13T18:45:24.857Z,13.10
2022-12-13T18:50:36.441Z,13.40
2022-12-13T18:55:40.156Z,13.57
2022-12-13T19:00:47.311Z,13.73
2022-12-13T19:05:51.842Z,14.38
2022-12-13T19:11:00.084Z,15.38
2022-12-13T19:16:09.670Z,16.75
2022-12-13T19:21:18.522Z,15.32
2022-12-13T19:26:21.431Z,14.60
2022-12-13T19:31:28.521Z,15.25
2022-12-13T19:36:36.411Z,15.52
2022-12-13T19:41:40.467Z,14.55
2022-12-13T19:46:44.529Z,15.10
2022-12-13T19:51:53.513Z,16.50
2022-12-13T19:57:02.525Z,14.88
2022-12-13T20:02:19.834Z,15.50
2022-12-13T20:07:23.781Z,15.13
2022-12-13T20:12:37.064Z,15.82
2022-12-13T20:17:46.920Z,16.65
2022-12-13T20:22:53.690Z,16.45
2022-12-13T20:27:55.270Z,16.27
2022-12-13T20:33:03.296Z,17.10
2022-12-13T20:38:10.900Z,15.45
2022-12-13T20:43:12.474Z,16.15
2022-12-13T20:48:19.125Z,17.67
2022-12-13T20:53:22.408Z,17.95
2022-12-13T20:58:27.861Z,15.88
2022-12-13T21:03:31.986Z,16.98
2022-12-13T21:08:51.834Z,17.92
2022-12-13T21:14:08.250Z,16.73
2022-12-13T21:19:25.360Z,16.13
2022-12-13T21:24:30.748Z,15.25
2022-12-13T21:29:34.583Z,17.40
2022-12-13T21:34:39.818Z,18.83
2022-12-13T21:39:43.672Z,19.25
2022-12-13T21:44:45.461Z,17.38
2022-12-13T21:49:52.301Z,17.13
2022-12-13T21:55:22.112Z,19.30
2022-12-13T22:00:26.070Z,16.80
2022-12-13T22:05:27.842Z,17.27
2022-12-13T22:10:31.687Z,16.77
2022-12-13T22:15:36.904Z,16.35
2022-12-13T22:20:38.533Z,16.50
2022-12-13T22:25:40.157Z,17.00
2022-12-13T22:30:44.777Z,17.63
2022-12-13T22:35:54.742Z,16.33
2022-12-13T22:41:02.720Z,16.77
2022-12-13T22:46:08.093Z,15.35
2022-12-13T22:51:19.109Z,15.98
2022-12-13T22:56:25.888Z,15.85
2022-12-13T23:01:35.594Z,16.10
2022-12-13T23:06:46.535Z,15.68
2022-12-13T23:12:09.234Z,15.82
2022-12-13T23:17:13.742Z,15.63
2022-12-13T23:22:15.426Z,16.20
2022-12-13T23:27:23.850Z,16.02
2022-12-13T23:32:28.119Z,16.77
2022-12-13T23:37:33.100Z,17.20
2022-12-13T23:42:34.597Z,16.08
2022-12-13T23:47:38.175Z,16.10
2022-12-13T23:52:44.038Z,16.80
2022-12-13T23:57:50.700Z,16.30
